Time;durP1;ratioP1;P1;durP2;ratioP2;P2;SDS_P1;SDS_P2;PMS_P1;PMS_P2;Temp;Humidity;BMP_temperature;BMP_pressure;BME280_temperature;BME280_humidity;BME280_pressure;Samples;Min_cycle;Max_cycle;Signal;HPM_P1;HPM_P2
2023/06/25 00:00:48;;;;;;;7.60;6.90;;;23.60;83.50;;;;;;4991299;28;20226;-71
2023/06/25 00:03:13;;;;;;;7.63;6.93;;;23.70;83.60;;;;;;5003358;28;20236;-71
2023/06/25 00:05:39;;;;;;;9.27;6.97;;;23.60;83.70;;;;;;5008782;28;20228;-71
2023/06/25 00:08:05;;;;;;;8.80;7.47;;;23.60;84.00;;;;;;5008411;28;20216;-72
2023/06/25 00:10:30;;;;;;;7.90;7.10;;;23.60;84.20;;;;;;5001700;28;20267;-72
2023/06/25 00:12:56;;;;;;;7.50;6.67;;;23.50;84.20;;;;;;5009775;28;20293;-72
2023/06/25 00:15:22;;;;;;;7.20;6.57;;;23.50;84.20;;;;;;5007715;28;20297;-71
2023/06/25 00:17:49;;;;;;;7.40;6.70;;;23.60;84.20;;;;;;4986243;28;20217;-71
2023/06/25 00:20:16;;;;;;;7.27;6.60;;;23.60;84.20;;;;;;5003223;28;20425;-72
2023/06/25 00:22:43;;;;;;;10.13;7.10;;;23.50;84.30;;;;;;4991700;28;20559;-71
2023/06/25 00:25:09;;;;;;;7.47;6.77;;;23.40;84.60;;;;;;5006247;28;20460;-71
2023/06/25 00:27:35;;;;;;;6.87;6.37;;;23.30;84.80;;;;;;5008570;28;20449;-70
2023/06/25 00:30:02;;;;;;;6.87;6.27;;;23.30;85.00;;;;;;5007638;28;20420;-71
2023/06/25 00:32:28;;;;;;;7.13;6.40;;;23.30;85.00;;;;;;5006247;28;20268;-73
2023/06/25 00:34:57;;;;;;;7.67;6.90;;;23.30;85.20;;;;;;5003946;28;20452;-73
2023/06/25 00:37:24;;;;;;;8.97;7.03;;;23.30;85.40;;;;;;4992746;28;20494;-71
2023/06/25 00:39:50;;;;;;;9.97;7.50;;;23.30;85.00;;;;;;5007815;28;20890;-71
2023/06/25 00:42:16;;;;;;;7.63;6.90;;;23.30;84.90;;;;;;5005798;28;20217;-70
2023/06/25 00:44:45;;;;;;;7.80;7.00;;;23.30;85.20;;;;;;4974991;28;20479;-70
2023/06/25 00:47:15;;;;;;;7.40;6.50;;;23.30;85.40;;;;;;4984424;28;20539;-68
2023/06/25 00:49:46;;;;;;;8.57;7.40;;;23.20;85.50;;;;;;5005358;28;20463;-71
2023/06/25 00:52:12;;;;;;;9.47;7.70;;;23.10;85.50;;;;;;4991070;28;20536;-72
2023/06/25 00:54:39;;;;;;;8.13;7.30;;;23.10;85.80;;;;;;4993050;28;20522;-72
2023/06/25 00:57:06;;;;;;;8.50;7.40;;;23.00;86.10;;;;;;4990854;28;20464;-72
2023/06/25 00:59:35;;;;;;;7.70;7.00;;;23.00;86.30;;;;;;5006675;28;20457;-72
2023/06/25 01:02:25;;;;;;;9.77;7.43;;;23.00;86.50;;;;;;5002213;28;20448;-72
2023/06/25 01:05:03;;;;;;;8.47;7.47;;;23.00;86.70;;;;;;4990367;28;20539;-72
2023/06/25 01:07:29;;;;;;;8.23;7.43;;;22.90;86.80;;;;;;5006632;28;20475;-75
2023/06/25 01:09:56;;;;;;;8.30;7.50;;;22.90;86.90;;;;;;5008061;28;20456;-72
2023/06/25 01:12:22;;;;;;;7.40;6.77;;;22.80;86.90;;;;;;4990581;28;20241;-73
2023/06/25 01:14:50;;;;;;;9.40;8.50;;;22.80;87.20;;;;;;4985983;28;20479;-72
2023/06/25 01:17:16;;;;;;;8.60;7.80;;;22.90;87.20;;;;;;5006086;28;20452;-73
2023/06/25 01:19:42;;;;;;;8.37;7.57;;;22.80;87.20;;;;;;4991565;28;20471;-73
2023/06/25 01:22:10;;;;;;;8.40;7.60;;;22.80;87.20;;;;;;5007259;28;20460;-73
2023/06/25 01:24:36;;;;;;;8.80;7.87;;;22.80;87.30;;;;;;5000735;28;20241;-73
2023/06/25 01:27:05;;;;;;;8.70;7.80;;;22.80;87.40;;;;;;5009778;28;20483;-73
2023/06/25 01:29:32;;;;;;;7.70;7.00;;;22.70;87.40;;;;;;5010585;28;20212;-73
2023/06/25 01:31:59;;;;;;;9.67;8.10;;;22.70;87.60;;;;;;5006695;28;20452;-73
2023/06/25 01:34:24;;;;;;;8.27;7.57;;;22.60;87.70;;;;;;5006054;28;20471;-74
2023/06/25 01:36:51;;;;;;;8.97;8.07;;;22.60;87.80;;;;;;5010585;28;20464;-73
2023/06/25 01:39:21;;;;;;;7.83;7.03;;;22.60;87.90;;;;;;5003429;28;20282;-72
2023/06/25 01:41:48;;;;;;;8.30;7.50;;;22.50;88.10;;;;;;5009059;28;20517;-73
2023/06/25 01:44:35;;;;;;;9.37;8.27;;;22.50;88.30;;;;;;4992316;28;20453;-74
2023/06/25 01:47:01;;;;;;;8.17;7.37;;;22.50;88.30;;;;;;5001128;28;20832;-72
2023/06/25 01:49:27;;;;;;;8.60;7.87;;;22.50;88.30;;;;;;5009761;28;20445;-73
2023/06/25 01:51:52;;;;;;;7.70;7.00;;;22.50;88.60;;;;;;5013589;28;20216;-72
2023/06/25 01:54:18;;;;;;;8.57;7.87;;;22.40;88.50;;;;;;5002083;28;20474;-72
2023/06/25 01:56:44;;;;;;;9.00;8.10;;;22.40;88.60;;;;;;4989087;28;20264;-73
2023/06/25 01:59:10;;;;;;;7.63;7.03;;;22.40;88.80;;;;;;4986503;28;20217;-73
2023/06/25 02:01:36;;;;;;;8.07;7.37;;;22.30;89.00;;;;;;4987477;28;20225;-73
2023/06/25 02:04:02;;;;;;;9.83;8.77;;;22.30;88.90;;;;;;5004350;28;20823;-73
2023/06/25 02:06:27;;;;;;;8.23;7.37;;;22.30;89.10;;;;;;5012436;28;20217;-73
2023/06/25 02:08:53;;;;;;;8.30;7.50;;;22.30;89.30;;;;;;4988793;28;20232;-72
2023/06/25 02:11:19;;;;;;;8.60;7.77;;;22.20;89.50;;;;;;5010589;28;20221;-72
2023/06/25 02:13:44;;;;;;;11.83;7.90;;;22.10;89.50;;;;;;5017462;28;20278;-73
2023/06/25 02:16:10;;;;;;;8.97;8.17;;;22.10;89.50;;;;;;4982630;28;20312;-72
2023/06/25 02:18:37;;;;;;;8.27;7.50;;;22.10;90.20;;;;;;5001462;28;20232;-73
2023/06/25 02:21:03;;;;;;;8.90;8.10;;;22.10;90.00;;;;;;5002527;28;20249;-73
2023/06/25 02:23:29;;;;;;;13.63;8.60;;;22.10;90.00;;;;;;5008367;28;20460;-72
2023/06/25 02:25:54;;;;;;;8.80;7.90;;;22.00;90.00;;;;;;5010091;28;20451;-73
2023/06/25 02:28:20;;;;;;;9.77;8.90;;;22.00;90.20;;;;;;5016759;28;20591;-72
2023/06/25 02:30:46;;;;;;;8.83;8.03;;;22.00;90.20;;;;;;5014303;28;20225;-73
2023/06/25 02:33:12;;;;;;;8.73;7.93;;;21.90;90.30;;;;;;5011285;28;20220;-72
2023/06/25 02:35:39;;;;;;;7.90;7.20;;;21.90;90.30;;;;;;4994935;28;20220;-72
2023/06/25 02:38:05;;;;;;;8.70;7.70;;;21.90;90.20;;;;;;5021893;28;20217;-73
2023/06/25 02:40:30;;;;;;;9.87;8.87;;;21.90;90.30;;;;;;5010121;28;20458;-73
2023/06/25 02:42:56;;;;;;;9.70;8.10;;;21.90;90.50;;;;;;5013847;28;20232;-72
2023/06/25 02:45:22;;;;;;;8.77;7.87;;;21.90;90.50;;;;;;5019515;28;20217;-72
2023/06/25 02:47:48;;;;;;;10.07;9.10;;;21.90;90.50;;;;;;5010313;28;20265;-72
2023/06/25 02:50:14;;;;;;;8.80;7.80;;;21.70;90.50;;;;;;5008950;28;20484;-72
2023/06/25 02:52:43;;;;;;;8.73;7.83;;;21.60;90.50;;;;;;5003257;28;20312;-72
2023/06/25 02:55:09;;;;;;;9.00;8.20;;;21.50;90.90;;;;;;5011175;28;20992;-73
2023/06/25 02:57:35;;;;;;;10.40;9.17;;;21.30;91.20;;;;;;4992577;28;20502;-72
2023/06/25 03:00:01;;;;;;;7.53;6.83;;;21.30;91.20;;;;;;5004869;28;20868;-71
2023/06/25 03:02:28;;;;;;;9.50;8.63;;;21.30;91.10;;;;;;4996481;28;20233;-73
2023/06/25 03:04:54;;;;;;;9.97;8.57;;;21.40;91.20;;;;;;5012946;28;20444;-71
2023/06/25 03:07:19;;;;;;;9.37;8.47;;;21.40;91.30;;;;;;5009202;28;20540;-72
2023/06/25 03:09:45;;;;;;;12.10;8.90;;;21.40;91.40;;;;;;5019618;28;20248;-74
2023/06/25 03:12:11;;;;;;;8.93;8.07;;;21.50;91.40;;;;;;5008779;28;20221;-73
2023/06/25 03:14:37;;;;;;;9.60;8.70;;;21.50;91.40;;;;;;5009435;28;20461;-72
2023/06/25 03:17:04;;;;;;;9.00;8.10;;;21.50;91.30;;;;;;5026180;28;20216;-72
2023/06/25 03:19:30;;;;;;;9.10;8.30;;;21.50;91.50;;;;;;4992139;28;20531;-74
2023/06/25 03:21:56;;;;;;;11.10;8.20;;;21.50;91.50;;;;;;5019110;28;20977;-72
2023/06/25 03:24:22;;;;;;;11.50;9.60;;;21.40;91.50;;;;;;5004360;28;20498;-73
2023/06/25 03:26:48;;;;;;;9.03;8.03;;;21.40;91.50;;;;;;5015875;28;20221;-72
2023/06/25 03:29:14;;;;;;;8.93;8.13;;;21.40;91.50;;;;;;4998300;28;20452;-72
2023/06/25 03:31:40;;;;;;;8.70;7.80;;;21.30;91.50;;;;;;5010585;28;20742;-71
2023/06/25 03:34:07;;;;;;;8.07;7.27;;;21.20;91.80;;;;;;5006950;28;20481;-71
2023/06/25 03:36:33;;;;;;;8.93;7.60;;;21.10;91.70;;;;;;4985626;28;20480;-72
2023/06/25 03:38:59;;;;;;;8.60;7.77;;;21.20;92.00;;;;;;4991920;28;20237;-72
2023/06/25 03:41:25;;;;;;;9.40;8.03;;;21.30;91.90;;;;;;4993538;28;20222;-71
2023/06/25 03:43:51;;;;;;;9.90;8.27;;;21.30;91.90;;;;;;5007736;28;20989;-72
2023/06/25 03:46:17;;;;;;;9.97;7.90;;;21.30;92.00;;;;;;5016382;28;20438;-72
2023/06/25 03:48:43;;;;;;;10.00;9.03;;;21.30;92.00;;;;;;5014859;28;20289;-72
2023/06/25 03:51:10;;;;;;;8.37;7.50;;;21.20;92.00;;;;;;4997097;28;20461;-71
2023/06/25 03:53:39;;;;;;;8.67;7.70;;;21.20;92.10;;;;;;4992876;28;20468;-72
2023/06/25 03:56:05;;;;;;;8.10;7.30;;;21.20;91.90;;;;;;4997017;28;21017;-71
2023/06/25 03:58:30;;;;;;;10.17;8.60;;;21.30;92.00;;;;;;5004261;28;20550;-73
2023/06/25 04:00:56;;;;;;;8.40;7.60;;;21.30;92.00;;;;;;5009855;28;20459;-71
2023/06/25 04:03:22;;;;;;;13.10;7.63;;;21.30;92.10;;;;;;5007275;28;20221;-71
2023/06/25 04:05:48;;;;;;;9.80;8.90;;;21.30;91.90;;;;;;4989764;28;20706;-72
2023/06/25 04:08:14;;;;;;;7.80;7.00;;;21.30;92.00;;;;;;4991976;28;20464;-72
2023/06/25 04:10:40;;;;;;;9.57;8.23;;;21.40;92.00;;;;;;4977480;28;20507;-71
2023/06/25 04:13:06;;;;;;;8.00;7.20;;;21.30;91.80;;;;;;5007486;28;20250;-71
2023/06/25 04:15:33;;;;;;;9.17;7.83;;;21.30;91.80;;;;;;5012906;28;20476;-71
2023/06/25 04:17:58;;;;;;;8.03;7.23;;;21.30;92.20;;;;;;4989890;28;20971;-72
2023/06/25 04:20:26;;;;;;;9.10;8.17;;;21.30;92.00;;;;;;5018746;28;20445;-72
2023/06/25 04:22:52;;;;;;;9.47;7.80;;;21.30;92.20;;;;;;5004823;28;20229;-72
2023/06/25 04:25:18;;;;;;;7.27;6.57;;;21.30;92.10;;;;;;4992228;28;20526;-72
2023/06/25 04:27:44;;;;;;;8.50;7.70;;;21.40;92.10;;;;;;5009837;28;20263;-71
2023/06/25 04:30:10;;;;;;;8.00;7.10;;;21.30;92.10;;;;;;5010445;28;20901;-72
2023/06/25 04:32:36;;;;;;;9.07;7.47;;;21.40;92.10;;;;;;4993536;28;20251;-72
2023/06/25 04:35:02;;;;;;;7.97;7.27;;;21.40;92.00;;;;;;5006910;28;20487;-72
2023/06/25 04:37:28;;;;;;;7.40;6.80;;;21.40;91.90;;;;;;5012503;28;20302;-72
2023/06/25 04:39:53;;;;;;;8.40;7.50;;;21.50;91.90;;;;;;4998010;28;20499;-71
2023/06/25 04:42:19;;;;;;;7.47;6.77;;;21.50;92.10;;;;;;5007876;28;20260;-72
2023/06/25 04:44:45;;;;;;;8.00;7.20;;;21.50;92.10;;;;;;5008517;28;20221;-71
2023/06/25 04:47:11;;;;;;;9.50;7.10;;;21.50;92.10;;;;;;5004044;28;20675;-72
2023/06/25 04:49:36;;;;;;;7.17;6.47;;;21.50;92.10;;;;;;5006504;28;20214;-72
2023/06/25 04:52:03;;;;;;;8.67;6.80;;;21.60;92.20;;;;;;4992813;28;20224;-72
2023/06/25 04:54:28;;;;;;;7.57;6.87;;;21.60;92.20;;;;;;5008832;28;20226;-72
2023/06/25 04:56:54;;;;;;;9.13;8.23;;;21.60;92.10;;;;;;5009136;28;20464;-72
2023/06/25 04:59:20;;;;;;;6.80;5.90;;;21.60;92.20;;;;;;5013472;28;20832;-73
2023/06/25 05:01:45;;;;;;;8.17;7.37;;;21.60;92.20;;;;;;5003822;28;20249;-72
2023/06/25 05:04:11;;;;;;;7.40;6.30;;;21.60;92.20;;;;;;5008112;28;20308;-72
2023/06/25 05:06:36;;;;;;;9.37;7.47;;;21.60;92.30;;;;;;5011949;28;20217;-70
2023/06/25 05:09:02;;;;;;;8.80;7.43;;;21.60;92.60;;;;;;5001861;28;20238;-72
2023/06/25 05:11:30;;;;;;;8.00;7.30;;;21.70;92.30;;;;;;5001872;28;20353;-71
2023/06/25 05:13:56;;;;;;;7.10;6.40;;;21.70;92.70;;;;;;4992973;28;20716;-72
2023/06/25 05:16:22;;;;;;;7.30;6.60;;;21.70;92.60;;;;;;5003573;28;20440;-72
2023/06/25 05:18:48;;;;;;;7.00;6.40;;;21.70;92.70;;;;;;5007093;28;20231;-72
2023/06/25 05:21:13;;;;;;;7.90;7.20;;;21.80;92.90;;;;;;5008366;28;20213;-73
2023/06/25 05:23:44;;;;;;;8.67;7.20;;;21.80;92.70;;;;;;4990258;28;20228;-72
2023/06/25 05:26:10;;;;;;;6.87;6.27;;;21.80;92.60;;;;;;4990481;28;20214;-72
2023/06/25 05:28:37;;;;;;;9.17;7.27;;;21.90;92.90;;;;;;4990888;28;20545;-74
2023/06/25 05:31:02;;;;;;;8.50;7.70;;;21.90;93.50;;;;;;5011322;28;20495;-72
2023/06/25 05:33:28;;;;;;;7.17;6.47;;;21.90;93.40;;;;;;5008290;28;20464;-72
2023/06/25 05:35:54;;;;;;;9.07;7.60;;;21.90;93.20;;;;;;4989174;28;20229;-72
2023/06/25 05:38:19;;;;;;;7.70;7.00;;;21.90;93.20;;;;;;5007546;28;20225;-72
2023/06/25 05:40:45;;;;;;;7.67;6.53;;;22.00;93.50;;;;;;5005022;28;20233;-72
2023/06/25 05:43:11;;;;;;;7.00;6.40;;;22.00;93.00;;;;;;5013636;28;20304;-73
2023/06/25 05:45:36;;;;;;;8.47;7.60;;;22.10;93.50;;;;;;5007690;28;20221;-71
2023/06/25 05:48:02;;;;;;;7.30;6.60;;;22.10;93.20;;;;;;5012430;28;20631;-72
2023/06/25 05:50:28;;;;;;;7.37;6.57;;;22.20;93.90;;;;;;5016377;28;20699;-72
2023/06/25 05:52:53;;;;;;;6.87;6.27;;;22.30;94.20;;;;;;4997252;28;20219;-72
2023/06/25 05:55:19;;;;;;;6.77;6.17;;;22.30;93.60;;;;;;5011430;28;20232;-73
2023/06/25 05:57:45;;;;;;;8.93;6.57;;;22.40;94.40;;;;;;5008450;28;20248;-72
2023/06/25 06:00:11;;;;;;;6.53;5.93;;;22.40;94.10;;;;;;4994410;28;20217;-72
2023/06/25 06:02:39;;;;;;;7.27;6.67;;;22.50;94.60;;;;;;5009734;28;20271;-73
2023/06/25 06:05:05;;;;;;;6.63;6.03;;;22.60;94.70;;;;;;5000238;28;20460;-73
2023/06/25 06:07:30;;;;;;;6.83;6.13;;;22.70;94.80;;;;;;5014644;28;20221;-73
2023/06/25 06:09:56;;;;;;;7.10;6.40;;;22.70;94.80;;;;;;4993513;28;20223;-73
2023/06/25 06:12:22;;;;;;;7.00;6.30;;;22.70;94.80;;;;;;5004448;28;20217;-72
2023/06/25 06:14:47;;;;;;;7.20;6.50;;;22.80;94.80;;;;;;4991250;28;20745;-72
2023/06/25 06:17:13;;;;;;;7.00;6.40;;;22.80;94.90;;;;;;5011362;28;20217;-72
2023/06/25 06:19:39;;;;;;;7.60;6.90;;;22.80;94.80;;;;;;5016695;28;20213;-72
2023/06/25 06:22:04;;;;;;;7.10;6.50;;;22.90;95.00;;;;;;5012515;28;20712;-72
2023/06/25 06:24:30;;;;;;;7.10;6.40;;;22.90;95.00;;;;;;5017410;28;20230;-76
2023/06/25 06:26:56;;;;;;;8.23;7.23;;;23.00;95.30;;;;;;5014541;28;20304;-72
2023/06/25 06:29:21;;;;;;;6.57;6.00;;;23.20;95.50;;;;;;4992780;28;20217;-72
2023/06/25 06:31:47;;;;;;;7.03;6.43;;;23.30;95.10;;;;;;5009548;28;20222;-73
2023/06/25 06:34:13;;;;;;;7.13;6.43;;;23.30;95.20;;;;;;5015161;28;20233;-72
2023/06/25 06:36:39;;;;;;;7.03;6.33;;;23.40;95.40;;;;;;5010848;28;20244;-72
2023/06/25 06:39:04;;;;;;;7.30;6.60;;;23.50;95.20;;;;;;4988645;28;20480;-71
2023/06/25 06:41:30;;;;;;;6.23;5.73;;;23.40;94.50;;;;;;4995878;28;20755;-74
2023/06/25 06:44:10;;;;;;;6.97;6.27;;;23.60;95.20;;;;;;4993047;28;20304;-72
2023/06/25 06:46:36;;;;;;;6.33;5.63;;;23.60;94.80;;;;;;4998115;28;20220;-73
2023/06/25 06:49:01;;;;;;;6.93;6.33;;;23.70;95.00;;;;;;5022982;28;20809;-73
2023/06/25 06:51:27;;;;;;;6.93;6.30;;;23.80;94.90;;;;;;5017692;28;20224;-72
2023/06/25 06:53:53;;;;;;;7.10;6.40;;;23.80;94.80;;;;;;4997894;28;20220;-72
2023/06/25 06:56:18;;;;;;;7.63;6.67;;;23.80;94.80;;;;;;5007430;28;20276;-73
2023/06/25 06:58:44;;;;;;;6.30;5.80;;;23.90;95.20;;;;;;4993112;28;20260;-73
2023/06/25 07:01:09;;;;;;;6.80;6.20;;;24.00;94.90;;;;;;5001173;28;20221;-73
2023/06/25 07:03:35;;;;;;;6.60;6.00;;;24.20;94.80;;;;;;4996294;28;20252;-72
2023/06/25 07:06:01;;;;;;;7.13;6.43;;;24.20;94.60;;;;;;5009041;28;20220;-73
2023/06/25 07:08:26;;;;;;;7.47;6.77;;;24.00;94.80;;;;;;5008952;28;20767;-73
2023/06/25 07:10:52;;;;;;;7.03;6.33;;;24.20;95.20;;;;;;5009491;28;20683;-72
2023/06/25 07:13:17;;;;;;;6.53;5.93;;;24.40;95.10;;;;;;5004650;28;20619;-73
2023/06/25 07:15:43;;;;;;;6.60;6.00;;;24.50;94.90;;;;;;4991801;28;20256;-75
2023/06/25 07:18:09;;;;;;;7.00;6.30;;;24.50;94.70;;;;;;5008008;28;20256;-72
2023/06/25 07:20:34;;;;;;;6.67;6.07;;;24.60;94.50;;;;;;5004925;28;20259;-74
2023/06/25 07:23:00;;;;;;;7.07;6.40;;;24.70;94.50;;;;;;5006118;28;20252;-72
2023/06/25 07:25:26;;;;;;;7.17;6.50;;;24.80;94.40;;;;;;4988908;28;20229;-73
2023/06/25 07:27:52;;;;;;;6.63;6.03;;;25.00;94.20;;;;;;4988168;28;20210;-73
2023/06/25 07:30:17;;;;;;;7.30;6.07;;;25.10;93.90;;;;;;5001903;28;20217;-74
2023/06/25 07:32:43;;;;;;;6.43;5.83;;;25.10;94.00;;;;;;4998485;28;20381;-73
2023/06/25 07:35:09;;;;;;;6.40;5.90;;;25.10;93.90;;;;;;5009312;28;20213;-72
2023/06/25 07:37:35;;;;;;;8.20;7.50;;;25.10;93.90;;;;;;4992907;28;20221;-74
2023/06/25 07:40:01;;;;;;;7.07;6.37;;;25.20;93.90;;;;;;5002795;28;20206;-73
2023/06/25 07:42:26;;;;;;;7.00;6.40;;;25.40;93.70;;;;;;4982235;28;20342;-73
2023/06/25 07:44:52;;;;;;;6.13;5.63;;;25.40;93.30;;;;;;5011508;28;20213;-74
2023/06/25 07:47:17;;;;;;;6.53;5.93;;;25.30;93.60;;;;;;5007916;28;20212;-73
2023/06/25 07:49:43;;;;;;;6.23;5.63;;;25.30;93.60;;;;;;5004715;28;20205;-73
2023/06/25 07:52:09;;;;;;;6.50;5.90;;;25.50;93.60;;;;;;4996006;28;20217;-72
2023/06/25 07:54:35;;;;;;;11.17;5.43;;;25.70;93.40;;;;;;4992346;28;20304;-72
2023/06/25 07:57:01;;;;;;;6.97;6.37;;;25.80;93.20;;;;;;4991759;28;20614;-73
2023/06/25 07:59:27;;;;;;;7.37;6.67;;;26.00;92.90;;;;;;5008238;28;20512;-73
2023/06/25 08:01:52;;;;;;;6.17;5.67;;;25.70;92.70;;;;;;5000797;28;20719;-72
2023/06/25 08:04:19;;;;;;;6.17;5.63;;;25.70;92.80;;;;;;5007095;28;20221;-73
2023/06/25 08:06:44;;;;;;;6.50;5.90;;;25.80;92.70;;;;;;5007545;28;20214;-73
2023/06/25 08:09:10;;;;;;;6.10;5.60;;;26.00;92.60;;;;;;4999023;28;20464;-73
2023/06/25 08:11:36;;;;;;;5.80;5.30;;;26.30;91.80;;;;;;5007744;28;20213;-75
2023/06/25 08:14:01;;;;;;;6.80;5.47;;;26.40;90.70;;;;;;4997215;28;20632;-74
2023/06/25 08:16:30;;;;;;;6.30;5.80;;;26.50;90.50;;;;;;5001636;28;20749;-74
2023/06/25 08:18:56;;;;;;;5.90;5.30;;;26.80;90.70;;;;;;5003850;28;20320;-73
2023/06/25 08:21:23;;;;;;;6.50;6.00;;;26.90;90.30;;;;;;5001666;28;20512;-73
2023/06/25 08:23:49;;;;;;;6.33;5.70;;;26.90;90.30;;;;;;5003945;28;20236;-72
2023/06/25 08:26:15;;;;;;;5.90;5.40;;;26.90;90.00;;;;;;4998529;28;20474;-74
2023/06/25 08:28:42;;;;;;;5.50;5.00;;;27.00;89.30;;;;;;4999200;28;20457;-70
2023/06/25 08:31:09;;;;;;;5.40;4.90;;;27.00;89.50;;;;;;4985336;28;20296;-72
2023/06/25 08:33:37;;;;;;;5.90;5.27;;;27.20;88.10;;;;;;4999656;28;20271;-72
2023/06/25 08:36:03;;;;;;;6.25;5.32;;;27.40;86.10;;;;;;5005712;28;20692;-71
2023/06/25 08:38:30;;;;;;;5.45;5.05;;;27.50;86.30;;;;;;5002824;28;20237;-73
2023/06/25 08:40:56;;;;;;;5.68;5.18;;;27.60;86.30;;;;;;5005417;28;20598;-73
2023/06/25 08:43:22;;;;;;;5.07;4.68;;;27.50;85.00;;;;;;4967657;28;20221;-73
2023/06/25 08:45:48;;;;;;;5.50;5.00;;;27.50;85.70;;;;;;5007711;28;20225;-73
2023/06/25 08:48:14;;;;;;;5.45;5.05;;;27.50;84.40;;;;;;5004154;28;20305;-73
2023/06/25 08:50:45;;;;;;;6.90;4.88;;;27.70;83.50;;;;;;4994349;28;20255;-73
2023/06/25 08:53:11;;;;;;;5.57;5.07;;;28.00;83.30;;;;;;4988625;28;20310;-73
2023/06/25 08:55:38;;;;;;;5.15;4.75;;;28.10;82.20;;;;;;5008477;28;20245;-71
2023/06/25 08:58:04;;;;;;;5.25;4.80;;;28.10;82.60;;;;;;5007279;28;20217;-72
2023/06/25 09:00:29;;;;;;;5.72;5.22;;;28.20;82.80;;;;;;5004225;28;20304;-72
2023/06/25 09:02:55;;;;;;;5.55;5.05;;;28.30;81.90;;;;;;5005311;28;20741;-73
2023/06/25 09:05:28;;;;;;;6.35;5.75;;;28.50;79.90;;;;;;5007626;28;20213;-73
2023/06/25 09:07:55;;;;;;;5.57;5.07;;;28.50;79.80;;;;;;5006410;28;20217;-72
2023/06/25 09:10:21;;;;;;;5.15;4.65;;;28.30;79.20;;;;;;5005302;28;20904;-73
2023/06/25 09:12:51;;;;;;;6.15;5.55;;;28.60;80.70;;;;;;4990146;28;20687;-74
2023/06/25 09:15:22;;;;;;;4.90;4.50;;;28.70;79.40;;;;;;4993266;28;20227;-72
2023/06/25 09:17:47;;;;;;;5.40;4.68;;;29.20;78.30;;;;;;4999078;28;20209;-71
2023/06/25 09:20:13;;;;;;;5.10;4.70;;;29.20;77.00;;;;;;4991942;28;20787;-73
2023/06/25 09:22:50;;;;;;;4.93;4.53;;;29.30;77.20;;;;;;5002865;28;20220;-73
2023/06/25 09:25:18;;;;;;;4.70;4.30;;;29.10;78.20;;;;;;4999302;28;20307;-73
2023/06/25 09:27:44;;;;;;;5.15;4.75;;;29.20;77.60;;;;;;4982014;28;20210;-73
2023/06/25 09:30:11;;;;;;;5.88;5.38;;;29.30;77.50;;;;;;4982957;28;20313;-70
2023/06/25 09:32:51;;;;;;;5.57;5.15;;;29.60;77.30;;;;;;4983031;28;20309;-71
2023/06/25 09:35:29;;;;;;;5.30;4.80;;;29.80;75.70;;;;;;5004444;28;20249;-72
2023/06/25 09:37:55;;;;;;;5.95;5.45;;;30.10;75.00;;;;;;5005538;28;20361;-72
2023/06/25 09:40:21;;;;;;;5.75;5.25;;;30.20;75.40;;;;;;5000027;28;20282;-72
2023/06/25 09:42:52;;;;;;;5.40;4.90;;;30.30;75.00;;;;;;4984437;28;20309;-72
2023/06/25 09:45:21;;;;;;;5.47;4.97;;;30.40;74.40;;;;;;5005364;28;20766;-71
2023/06/25 09:47:47;;;;;;;5.22;4.80;;;30.50;73.30;;;;;;5000929;28;20232;-75
2023/06/25 09:50:42;;;;;;;4.95;4.55;;;30.70;71.50;;;;;;4991587;28;20295;-70
2023/06/25 09:53:16;;;;;;;5.80;5.30;;;30.80;72.20;;;;;;4989485;28;20236;-72
2023/06/25 09:55:42;;;;;;;5.72;5.32;;;30.70;73.00;;;;;;4995126;28;20765;-71
2023/06/25 09:58:09;;;;;;;5.20;4.80;;;30.60;72.20;;;;;;4979962;28;20241;-72
2023/06/25 10:00:38;;;;;;;5.65;5.25;;;30.70;72.80;;;;;;5001586;28;20709;-75
2023/06/25 10:03:04;;;;;;;5.95;5.45;;;30.90;71.80;;;;;;4999995;28;20256;-73
2023/06/25 10:05:31;;;;;;;6.05;5.55;;;31.10;70.20;;;;;;5003886;28;20232;-74
2023/06/25 10:07:58;;;;;;;5.10;4.70;;;31.00;70.80;;;;;;5005662;28;20223;-73
2023/06/25 10:10:28;;;;;;;5.70;5.20;;;31.10;71.40;;;;;;5003201;28;20236;-74
2023/06/25 10:12:53;;;;;;;5.55;5.05;;;31.10;70.70;;;;;;5002465;28;20244;-73
2023/06/25 10:15:29;;;;;;;5.15;4.75;;;31.10;69.70;;;;;;5006885;28;20221;-74
2023/06/25 10:18:01;;;;;;;5.47;4.32;;;31.20;69.40;;;;;;5005348;28;20316;-73
2023/06/25 10:20:33;;;;;;;5.43;5.03;;;31.40;68.10;;;;;;4979321;28;20356;-72
2023/06/25 10:23:11;;;;;;;5.45;4.93;;;31.50;67.60;;;;;;5005933;28;20299;-74
2023/06/25 10:25:40;;;;;;;5.13;4.75;;;31.30;67.70;;;;;;5003551;28;20217;-72
2023/06/25 10:28:09;;;;;;;4.72;4.32;;;31.30;67.20;;;;;;5005098;28;20205;-74
2023/06/25 10:30:48;;;;;;;5.13;4.72;;;31.10;66.10;;;;;;5005132;28;20217;-75
2023/06/25 10:33:17;;;;;;;6.30;5.53;;;31.00;66.10;;;;;;5003560;28;20221;-73
2023/06/25 10:35:55;;;;;;;5.20;4.80;;;31.00;66.50;;;;;;5003156;28;20288;-73
2023/06/25 10:38:21;;;;;;;5.32;4.82;;;31.10;66.20;;;;;;5003181;28;20213;-73
2023/06/25 10:40:47;;;;;;;6.00;5.50;;;31.30;66.40;;;;;;4978274;28;20222;-75
2023/06/25 10:43:17;;;;;;;4.60;4.30;;;31.40;66.80;;;;;;5005023;28;20233;-72
2023/06/25 10:45:48;;;;;;;5.30;4.80;;;31.50;66.20;;;;;;5009042;28;20279;-74
2023/06/25 10:48:14;;;;;;;5.32;4.93;;;31.90;65.50;;;;;;4999453;28;20255;-73
2023/06/25 10:50:39;;;;;;;6.55;5.32;;;32.10;63.50;;;;;;5005042;28;20279;-73
2023/06/25 10:53:16;;;;;;;4.93;4.47;;;32.30;62.50;;;;;;5008420;28;20829;-71
2023/06/25 10:55:47;;;;;;;4.70;4.20;;;32.50;61.90;;;;;;5004831;28;20217;-71
2023/06/25 10:58:20;;;;;;;5.13;4.72;;;32.50;62.70;;;;;;4990100;28;20213;-75
2023/06/25 11:00:56;;;;;;;5.50;5.10;;;32.40;62.10;;;;;;5005919;28;20680;-73
2023/06/25 11:03:22;;;;;;;5.25;4.82;;;32.40;63.20;;;;;;4999884;28;20232;-71
2023/06/25 11:05:48;;;;;;;5.65;5.15;;;32.30;62.90;;;;;;5007626;28;20247;-71
2023/06/25 11:08:14;;;;;;;5.40;5.00;;;32.30;62.10;;;;;;5003586;28;20308;-71
2023/06/25 11:10:44;;;;;;;5.20;4.80;;;32.70;61.30;;;;;;5005641;28;20274;-71
2023/06/25 11:13:12;;;;;;;5.43;5.03;;;32.80;61.00;;;;;;5004645;28;20216;-72
2023/06/25 11:15:41;;;;;;;5.78;5.38;;;32.70;62.10;;;;;;5009457;28;20629;-70
2023/06/25 11:18:10;;;;;;;5.75;5.25;;;32.70;61.80;;;;;;5002226;28;20289;-72
2023/06/25 11:20:40;;;;;;;6.40;5.18;;;32.50;60.20;;;;;;5005434;28;20244;-71
2023/06/25 11:23:10;;;;;;;6.30;5.70;;;32.50;60.90;;;;;;5004959;28;20304;-71
2023/06/25 11:25:36;;;;;;;5.88;5.25;;;32.60;61.70;;;;;;5002345;28;20214;-73
2023/06/25 11:28:11;;;;;;;5.88;5.38;;;32.80;61.30;;;;;;5007267;28;20225;-72
2023/06/25 11:30:37;;;;;;;5.60;5.15;;;33.00;60.60;;;;;;5008603;28;20248;-69
2023/06/25 11:33:17;;;;;;;6.28;5.68;;;33.10;60.00;;;;;;4991370;28;20224;-71
2023/06/25 11:35:49;;;;;;;5.50;4.88;;;33.00;59.70;;;;;;5003765;28;20699;-71
2023/06/25 11:38:27;;;;;;;5.32;4.93;;;33.00;59.70;;;;;;4991695;28;20232;-76
2023/06/25 11:40:55;;;;;;;6.03;5.53;;;33.00;59.60;;;;;;5003086;28;20224;-72
2023/06/25 11:43:22;;;;;;;7.07;6.47;;;32.90;59.60;;;;;;5008795;28;20232;-71
2023/06/25 11:45:48;;;;;;;5.53;5.13;;;32.80;59.30;;;;;;5008001;28;20213;-73
2023/06/25 11:48:15;;;;;;;6.40;5.90;;;33.40;58.70;;;;;;5008106;28;20213;-70
2023/06/25 11:50:42;;;;;;;5.75;5.25;;;33.30;58.80;;;;;;5007073;28;20213;-75
2023/06/25 11:53:09;;;;;;;5.57;5.10;;;33.30;59.50;;;;;;4994893;28;20229;-74
2023/06/25 11:55:34;;;;;;;7.20;6.55;;;33.00;59.60;;;;;;5002744;28;20585;-73
2023/06/25 11:58:00;;;;;;;6.18;5.60;;;32.60;61.60;;;;;;5003554;28;20248;-72
2023/06/25 12:00:26;;;;;;;5.35;4.95;;;32.90;59.80;;;;;;5009881;28;20245;-71
2023/06/25 12:02:52;;;;;;;6.22;5.72;;;33.00;60.50;;;;;;5009171;28;20310;-71
2023/06/25 12:05:17;;;;;;;6.47;5.97;;;33.00;60.50;;;;;;5009010;28;20288;-71
2023/06/25 12:07:43;;;;;;;5.95;5.43;;;33.00;60.90;;;;;;4992070;28;20216;-71
2023/06/25 12:10:09;;;;;;;7.57;5.40;;;33.30;59.80;;;;;;5008118;28;20731;-71
2023/06/25 12:12:34;;;;;;;5.72;5.13;;;33.30;58.80;;;;;;5009133;28;20221;-74
2023/06/25 12:15:00;;;;;;;6.32;5.82;;;33.30;58.90;;;;;;5009661;28;20225;-69
2023/06/25 12:17:26;;;;;;;5.22;4.82;;;33.30;58.80;;;;;;5007297;28;20248;-70
2023/06/25 12:19:51;;;;;;;6.72;6.13;;;33.40;58.70;;;;;;5000629;28;20228;-71
2023/06/25 12:22:17;;;;;;;5.80;5.35;;;33.50;58.90;;;;;;5007054;28;20308;-71
2023/06/25 12:24:43;;;;;;;5.78;5.28;;;33.40;58.70;;;;;;4991471;28;20696;-74
2023/06/25 12:27:09;;;;;;;5.95;5.35;;;33.50;59.70;;;;;;4996549;28;20758;-71
2023/06/25 12:29:34;;;;;;;5.85;5.25;;;33.60;59.20;;;;;;4997948;28;20267;-77
2023/06/25 12:32:00;;;;;;;6.13;5.63;;;34.00;58.30;;;;;;4999263;28;20236;-71
2023/06/25 12:34:29;;;;;;;6.00;5.50;;;34.20;58.60;;;;;;5006661;28;20715;-73
2023/06/25 12:36:55;;;;;;;6.22;5.72;;;34.30;58.40;;;;;;4989213;28;20217;-74
2023/06/25 12:39:21;;;;;;;7.05;6.38;;;34.10;59.20;;;;;;5003459;28;20308;-75
2023/06/25 12:41:48;;;;;;;6.30;5.80;;;34.00;59.50;;;;;;4995106;28;20248;-71
2023/06/25 12:44:14;;;;;;;5.50;5.10;;;34.20;59.10;;;;;;5002746;28;20676;-74